createdAt,value
2016-09-17T00:00:36.589Z,0
2016-09-17T00:01:36.569Z,0
2016-09-17T00:02:36.551Z,0
2016-09-17T00:03:36.530Z,0
2016-09-17T00:04:36.521Z,0
2016-09-17T00:05:36.494Z,0
2016-09-17T00:06:36.471Z,0
2016-09-17T00:07:36.455Z,0
2016-09-17T00:08:36.443Z,0
2016-09-17T00:09:36.413Z,0
2016-09-17T00:10:36.398Z,0
2016-09-17T00:11:36.372Z,0
2016-09-17T00:12:36.350Z,0
2016-09-17T00:13:36.336Z,0
2016-09-17T00:14:36.310Z,0
2016-09-17T00:15:36.296Z,0
2016-09-17T00:16:36.276Z,0
2016-09-17T00:17:36.257Z,0
2016-09-17T00:18:36.239Z,0
2016-09-17T00:19:36.216Z,0
2016-09-17T00:20:36.197Z,0
2016-09-17T00:21:36.168Z,0
2016-09-17T00:22:36.168Z,0
2016-09-17T00:23:36.139Z,0
2016-09-17T00:24:36.116Z,0
2016-09-17T00:25:36.096Z,0
2016-09-17T00:26:36.095Z,0
2016-09-17T00:27:36.059Z,0
2016-09-17T00:28:36.035Z,0
2016-09-17T00:29:36.019Z,0
2016-09-17T00:30:35.995Z,0
2016-09-17T00:31:35.982Z,0
2016-09-17T00:32:35.953Z,0
2016-09-17T00:33:35.944Z,0
2016-09-17T00:34:36.218Z,0
2016-09-17T00:35:35.904Z,0
2016-09-17T00:36:35.892Z,0
2016-09-17T00:37:35.850Z,0
2016-09-17T00:38:35.842Z,0
2016-09-17T00:39:35.816Z,0
2016-09-17T00:40:35.803Z,0
2016-09-17T00:41:35.872Z,0
2016-09-17T00:42:35.764Z,0
2016-09-17T00:43:35.746Z,0
2016-09-17T00:44:35.723Z,0
2016-09-17T00:45:35.703Z,0
2016-09-17T00:46:35.678Z,0
2016-09-17T00:47:35.679Z,0
2016-09-17T00:48:35.641Z,0
2016-09-17T00:49:35.625Z,0
2016-09-17T00:50:35.609Z,0
2016-09-17T00:51:35.585Z,0
2016-09-17T00:52:35.567Z,0
2016-09-17T00:53:35.538Z,0
2016-09-17T00:54:35.524Z,0
2016-09-17T00:55:35.514Z,0
2016-09-17T00:56:35.485Z,0
2016-09-17T00:57:35.466Z,0
2016-09-17T00:58:35.746Z,0
2016-09-17T00:59:35.427Z,0
2016-09-17T01:00:35.399Z,0
2016-09-17T01:01:35.389Z,0
2016-09-17T01:02:35.363Z,0
2016-09-17T01:03:35.349Z,0
2016-09-17T01:04:35.329Z,0
2016-09-17T01:05:35.358Z,0
2016-09-17T01:06:35.293Z,0
2016-09-17T01:07:35.266Z,0
2016-09-17T01:08:35.251Z,0
2016-09-17T01:09:35.225Z,0
2016-09-17T01:10:35.213Z,0
2016-09-17T01:11:35.203Z,0
2016-09-17T01:12:35.175Z,0
2016-09-17T01:13:35.454Z,0
2016-09-17T01:14:35.130Z,0
2016-09-17T01:15:35.113Z,0
2016-09-17T01:16:35.109Z,0
2016-09-17T01:17:35.074Z,0
2016-09-17T01:18:35.056Z,0
2016-09-17T01:19:35.027Z,0
2016-09-17T01:20:35.016Z,0
2016-09-17T01:21:34.994Z,0
2016-09-17T01:22:34.985Z,0
2016-09-17T01:23:34.954Z,0
2016-09-17T01:24:34.935Z,0
2016-09-17T01:25:34.921Z,0
2016-09-17T01:26:34.887Z,0
2016-09-17T01:27:34.880Z,0
2016-09-17T01:28:34.852Z,0
2016-09-17T01:29:34.837Z,0
2016-09-17T01:30:34.821Z,0
2016-09-17T01:31:34.797Z,0
2016-09-17T01:32:34.775Z,0
2016-09-17T01:33:34.755Z,0
2016-09-17T01:34:34.742Z,0
2016-09-17T01:35:34.716Z,0
2016-09-17T01:36:34.698Z,0
2016-09-17T01:37:34.682Z,0
2016-09-17T01:38:34.654Z,0
2016-09-17T01:39:34.642Z,0
2016-09-17T01:40:34.621Z,0
2016-09-17T01:41:34.609Z,0
2016-09-17T01:42:34.572Z,0
2016-09-17T01:43:34.560Z,0
2016-09-17T01:44:34.538Z,0
2016-09-17T01:45:34.519Z,0
2016-09-17T01:46:34.498Z,0
2016-09-17T01:47:34.482Z,0
2016-09-17T01:48:34.463Z,0
2016-09-17T01:49:34.436Z,0
2016-09-17T01:50:34.422Z,0
2016-09-17T01:51:34.394Z,0
2016-09-17T01:52:34.383Z,0
2016-09-17T01:53:34.361Z,0
2016-09-17T01:54:34.339Z,0
2016-09-17T01:55:34.323Z,0
2016-09-17T01:56:34.302Z,0
2016-09-17T01:57:34.281Z,0
2016-09-17T01:58:34.259Z,0
2016-09-17T01:59:34.240Z,0
2016-09-17T02:00:34.223Z,0
2016-09-17T02:01:34.205Z,0
2016-09-17T02:02:34.189Z,0
2016-09-17T02:03:34.162Z,0
2016-09-17T02:04:34.144Z,0
2016-09-17T02:05:34.183Z,0
2016-09-17T02:06:34.103Z,0
2016-09-17T02:07:34.088Z,0
2016-09-17T02:08:34.069Z,0
2016-09-17T02:09:34.045Z,0
2016-09-17T02:10:34.023Z,0
2016-09-17T02:11:34.002Z,0
2016-09-17T02:12:33.990Z,0
2016-09-17T02:13:33.964Z,0
2016-09-17T02:14:34.241Z,0
2016-09-17T02:15:33.921Z,0
2016-09-17T02:16:33.906Z,0
2016-09-17T02:17:33.885Z,0
2016-09-17T02:18:33.867Z,0
2016-09-17T02:19:33.842Z,0
2016-09-17T02:20:33.827Z,0
2016-09-17T02:21:33.805Z,0
2016-09-17T02:22:33.784Z,0
2016-09-17T02:23:33.764Z,0
2016-09-17T02:24:33.744Z,0
2016-09-17T02:25:33.726Z,0
2016-09-17T02:26:33.703Z,0
2016-09-17T02:27:33.691Z,0
2016-09-17T02:28:33.662Z,0
2016-09-17T02:29:33.646Z,0
2016-09-17T02:30:33.631Z,0
2016-09-17T02:31:33.596Z,0
2016-09-17T02:32:33.583Z,0
2016-09-17T02:33:33.556Z,0
2016-09-17T02:34:33.542Z,0
2016-09-17T02:35:33.526Z,0
2016-09-17T02:36:33.500Z,0
2016-09-17T02:37:33.485Z,0
2016-09-17T02:38:33.467Z,0
2016-09-17T02:39:33.442Z,0
2016-09-17T02:40:33.419Z,0
2016-09-17T02:41:33.401Z,0
2016-09-17T02:42:33.381Z,0
2016-09-17T02:43:33.358Z,0
2016-09-17T02:44:33.356Z,0
2016-09-17T02:45:33.313Z,0
2016-09-17T02:46:33.304Z,0
2016-09-17T02:47:33.289Z,0
2016-09-17T02:48:33.254Z,0
2016-09-17T02:49:33.239Z,0
2016-09-17T02:50:33.217Z,0
2016-09-17T02:51:33.203Z,0
2016-09-17T02:52:33.177Z,0
2016-09-17T02:53:33.158Z,0
2016-09-17T02:54:33.139Z,0
2016-09-17T02:55:33.115Z,0
2016-09-17T02:56:33.097Z,0
2016-09-17T02:57:33.072Z,0
2016-09-17T02:58:33.056Z,0
2016-09-17T02:59:33.030Z,0
2016-09-17T03:00:33.021Z,0
2016-09-17T03:01:32.995Z,0
2016-09-17T03:02:32.971Z,0
2016-09-17T03:03:32.955Z,0
2016-09-17T03:04:32.928Z,0
2016-09-17T03:05:32.919Z,0
2016-09-17T03:06:32.897Z,0
2016-09-17T03:07:32.870Z,0
2016-09-17T03:08:32.855Z,0
2016-09-17T03:09:32.829Z,0
2016-09-17T03:10:32.814Z,0
2016-09-17T03:11:32.803Z,0
2016-09-17T03:12:32.770Z,0
2016-09-17T03:13:32.749Z,0
2016-09-17T03:14:33.027Z,0
2016-09-17T03:15:32.709Z,0
2016-09-17T03:16:32.688Z,0
2016-09-17T03:17:32.668Z,0
2016-09-17T03:18:32.646Z,0
2016-09-17T03:19:32.626Z,0
2016-09-17T03:20:32.618Z,0
2016-09-17T03:21:32.582Z,0
2016-09-17T03:22:32.572Z,0
2016-09-17T03:23:32.542Z,0
2016-09-17T03:24:32.519Z,0
2016-09-17T03:25:32.504Z,0
2016-09-17T03:26:32.474Z,0
2016-09-17T03:27:32.461Z,0
2016-09-17T03:28:32.452Z,0
2016-09-17T03:29:32.420Z,0
2016-09-17T03:30:32.402Z,0
2016-09-17T03:31:32.380Z,0
2016-09-17T03:32:32.356Z,0
2016-09-17T03:33:32.335Z,0
2016-09-17T03:34:32.320Z,0
2016-09-17T03:35:32.296Z,0
2016-09-17T03:36:32.279Z,0
2016-09-17T03:37:32.252Z,0
2016-09-17T03:38:32.233Z,0
2016-09-17T03:39:32.217Z,0
2016-09-17T03:40:32.196Z,0
2016-09-17T03:41:32.173Z,0
2016-09-17T03:42:32.144Z,0
2016-09-17T03:43:32.138Z,0
2016-09-17T03:44:32.103Z,0
2016-09-17T03:45:32.086Z,0
2016-09-17T03:46:32.078Z,0
2016-09-17T03:47:32.040Z,0
2016-09-17T03:48:32.027Z,0
2016-09-17T03:49:32.002Z,0
2016-09-17T03:50:31.981Z,0
2016-09-17T03:51:31.963Z,0
2016-09-17T03:52:31.945Z,0
2016-09-17T03:53:31.922Z,0
2016-09-17T03:54:31.898Z,0
2016-09-17T03:55:31.887Z,0
2016-09-17T03:56:31.854Z,0
2016-09-17T03:57:31.838Z,0
2016-09-17T03:58:31.821Z,0
2016-09-17T03:59:31.797Z,0
2016-09-17T04:00:31.777Z,0
2016-09-17T04:01:31.748Z,0
2016-09-17T04:02:31.732Z,0
2016-09-17T04:03:31.708Z,0
2016-09-17T04:04:31.706Z,0
2016-09-17T04:05:31.662Z,0
2016-09-17T04:06:31.663Z,0
2016-09-17T04:07:31.625Z,0
2016-09-17T04:08:31.608Z,0
2016-09-17T04:09:31.586Z,0
2016-09-17T04:10:31.562Z,0
2016-09-17T04:11:31.543Z,0
2016-09-17T04:12:31.530Z,0
2016-09-17T04:13:31.506Z,0
2016-09-17T04:14:31.477Z,0
2016-09-17T04:15:31.466Z,0
2016-09-17T04:16:31.436Z,0
2016-09-17T04:17:31.415Z,0
2016-09-17T04:18:31.392Z,0
2016-09-17T04:19:31.375Z,0
2016-09-17T04:20:31.347Z,0
2016-09-17T04:21:31.329Z,0
2016-09-17T04:22:31.307Z,0
2016-09-17T04:23:31.594Z,0
2016-09-17T04:24:31.274Z,0
2016-09-17T04:25:31.246Z,0
2016-09-17T04:26:31.229Z,0
2016-09-17T04:27:31.206Z,0
2016-09-17T04:28:31.183Z,0
2016-09-17T04:29:31.158Z,0
2016-09-17T04:30:31.148Z,0
2016-09-17T04:31:31.117Z,0
2016-09-17T04:32:31.100Z,0
2016-09-17T04:33:31.081Z,0
2016-09-17T04:34:31.068Z,0
2016-09-17T04:35:31.037Z,0
2016-09-17T04:36:31.015Z,0
2016-09-17T04:37:30.999Z,0
2016-09-17T04:38:30.974Z,0
2016-09-17T04:39:30.955Z,0
2016-09-17T04:40:30.930Z,0
2016-09-17T04:41:30.913Z,0
2016-09-17T04:42:30.897Z,0
2016-09-17T04:43:30.874Z,0
2016-09-17T04:44:30.843Z,0
2016-09-17T04:45:30.823Z,0
2016-09-17T04:46:30.801Z,0
2016-09-17T04:47:30.783Z,0
2016-09-17T04:48:30.764Z,0
2016-09-17T04:49:30.744Z,0
2016-09-17T04:50:30.721Z,0
2016-09-17T04:51:30.701Z,0
2016-09-17T04:52:30.682Z,0
2016-09-17T04:53:30.666Z,0
2016-09-17T04:54:30.635Z,0
2016-09-17T04:55:30.617Z,0
2016-09-17T04:56:30.604Z,0
2016-09-17T04:57:30.573Z,0
2016-09-17T04:58:30.551Z,0
2016-09-17T04:59:30.521Z,0
2016-09-17T05:00:30.521Z,0
2016-09-17T05:01:30.487Z,5
2016-09-17T05:02:30.466Z,5
2016-09-17T05:03:30.441Z,5
2016-09-17T05:04:30.429Z,5
2016-09-17T05:05:30.402Z,5
2016-09-17T05:06:30.391Z,5
2016-09-17T05:07:30.359Z,10
2016-09-17T05:08:30.338Z,10
2016-09-17T05:09:30.316Z,10
2016-09-17T05:10:30.303Z,10
2016-09-17T05:11:30.276Z,15
2016-09-17T05:12:30.257Z,15
2016-09-17T05:13:30.244Z,15
2016-09-17T05:14:30.212Z,15
2016-09-17T05:15:30.193Z,20
2016-09-17T05:16:30.169Z,20
2016-09-17T05:17:30.298Z,20
2016-09-17T05:18:30.127Z,25
2016-09-17T05:19:30.110Z,25
2016-09-17T05:20:30.089Z,25
2016-09-17T05:21:30.071Z,30
2016-09-17T05:22:30.058Z,30
2016-09-17T05:23:30.020Z,35
2016-09-17T05:24:30.004Z,35
2016-09-17T05:25:29.977Z,40
2016-09-17T05:26:29.976Z,40
2016-09-17T05:27:29.933Z,40
2016-09-17T05:28:29.921Z,45
2016-09-17T05:29:29.898Z,45
2016-09-17T05:30:29.876Z,50
2016-09-17T05:31:29.859Z,50
2016-09-17T05:32:29.833Z,50
2016-09-17T05:33:30.111Z,50
2016-09-17T05:34:29.791Z,55
2016-09-17T05:35:29.772Z,55
2016-09-17T05:36:29.756Z,55
2016-09-17T05:37:29.735Z,60
2016-09-17T05:38:29.709Z,60
2016-09-17T05:39:29.691Z,60
2016-09-17T05:40:29.663Z,65
2016-09-17T05:41:29.644Z,65
2016-09-17T05:42:29.622Z,65
2016-09-17T05:43:29.608Z,65
2016-09-17T05:44:29.588Z,70
2016-09-17T05:45:29.560Z,70
2016-09-17T05:46:29.536Z,75
2016-09-17T05:47:29.520Z,75
2016-09-17T05:48:29.499Z,80
2016-09-17T05:49:29.496Z,85
2016-09-17T05:50:29.454Z,85
2016-09-17T05:51:29.733Z,90
2016-09-17T05:52:29.412Z,95
2016-09-17T05:53:29.392Z,100
2016-09-17T05:54:29.364Z,100
2016-09-17T05:55:29.349Z,105
2016-09-17T05:56:29.325Z,105
2016-09-17T05:57:29.313Z,110
2016-09-17T05:58:29.291Z,115
2016-09-17T05:59:29.264Z,120
2016-09-17T06:00:29.245Z,125
2016-09-17T06:01:29.223Z,130
2016-09-17T06:02:29.201Z,135
2016-09-17T06:03:29.179Z,140
2016-09-17T06:04:29.164Z,145
2016-09-17T06:05:29.436Z,150
2016-09-17T06:06:29.121Z,160
2016-09-17T06:07:29.091Z,170
2016-09-17T06:08:29.078Z,175
2016-09-17T06:09:29.053Z,185
2016-09-17T06:10:29.037Z,190
2016-09-17T06:11:29.321Z,200
2016-09-17T06:12:28.991Z,205
2016-09-17T06:13:28.974Z,215
2016-09-17T06:14:28.951Z,220
2016-09-17T06:15:28.934Z,225
2016-09-17T06:16:28.909Z,230
2016-09-17T06:17:28.891Z,230
2016-09-17T06:18:28.867Z,235
2016-09-17T06:19:28.855Z,240
2016-09-17T06:20:28.826Z,245
2016-09-17T06:21:28.810Z,250
2016-09-17T06:22:28.786Z,255
2016-09-17T06:23:28.770Z,255
2016-09-17T06:24:28.759Z,260
2016-09-17T06:25:28.724Z,270
2016-09-17T06:26:28.706Z,275
2016-09-17T06:27:28.681Z,285
2016-09-17T06:28:28.665Z,295
2016-09-17T06:29:28.648Z,305
2016-09-17T06:30:28.623Z,315
2016-09-17T06:31:28.603Z,320
2016-09-17T06:32:28.582Z,330
2016-09-17T06:33:28.564Z,335
2016-09-17T06:34:28.551Z,335
2016-09-17T06:35:28.519Z,335
2016-09-17T06:36:28.508Z,340
2016-09-17T06:37:28.480Z,345
2016-09-17T06:38:28.464Z,350
2016-09-17T06:39:28.593Z,350
2016-09-17T06:40:28.466Z,350
2016-09-17T06:41:28.411Z,350
2016-09-17T06:42:28.394Z,350
2016-09-17T06:43:28.373Z,350
2016-09-17T06:44:28.341Z,355
2016-09-17T06:45:28.325Z,360
2016-09-17T06:46:28.308Z,365
2016-09-17T06:47:28.283Z,370
2016-09-17T06:48:28.269Z,375
2016-09-17T06:49:28.243Z,385
2016-09-17T06:50:28.223Z,390
2016-09-17T06:51:28.207Z,390
2016-09-17T06:52:28.191Z,390
2016-09-17T06:53:28.167Z,390
2016-09-17T06:54:28.144Z,390
2016-09-17T06:55:28.127Z,390
2016-09-17T06:56:28.131Z,385
2016-09-17T06:57:28.087Z,385
2016-09-17T06:58:28.068Z,385
2016-09-17T06:59:28.049Z,390
2016-09-17T07:00:28.026Z,385
2016-09-17T07:01:28.015Z,385
2016-09-17T07:02:27.988Z,385
2016-09-17T07:03:27.979Z,390
2016-09-17T07:04:27.961Z,390
2016-09-17T07:05:27.939Z,395
2016-09-17T07:06:27.912Z,395
2016-09-17T07:07:27.896Z,395
2016-09-17T07:08:27.874Z,400
2016-09-17T07:09:27.860Z,405
2016-09-17T07:10:27.857Z,410
2016-09-17T07:11:27.814Z,415
2016-09-17T07:12:27.804Z,430
2016-09-17T07:13:27.783Z,445
2016-09-17T07:14:27.764Z,465
2016-09-17T07:15:27.744Z,480
2016-09-17T07:16:27.727Z,495
2016-09-17T07:17:27.706Z,500
2016-09-17T07:18:27.707Z,510
2016-09-17T07:19:27.667Z,515
2016-09-17T07:20:27.654Z,515
2016-09-17T07:21:27.638Z,510
2016-09-17T07:22:27.611Z,510
2016-09-17T07:23:27.590Z,510
2016-09-17T07:24:27.578Z,505
2016-09-17T07:25:27.553Z,510
2016-09-17T07:26:27.538Z,520
2016-09-17T07:27:27.520Z,530
2016-09-17T07:28:27.510Z,550
2016-09-17T07:29:27.482Z,565
2016-09-17T07:30:27.466Z,590
2016-09-17T07:31:27.447Z,585
2016-09-17T07:32:27.427Z,595
2016-09-17T07:33:27.419Z,600
2016-09-17T07:34:27.394Z,605
2016-09-17T07:35:27.371Z,605
2016-09-17T07:36:27.352Z,610
2016-09-17T07:37:27.338Z,615
2016-09-17T07:38:27.317Z,620
2016-09-17T07:39:27.303Z,630
2016-09-17T07:40:27.287Z,645
2016-09-17T07:41:27.265Z,650
2016-09-17T07:42:27.250Z,660
2016-09-17T07:43:27.226Z,665
2016-09-17T07:44:27.203Z,670
2016-09-17T07:45:27.192Z,675
2016-09-17T07:46:27.183Z,680
2016-09-17T07:47:27.154Z,685
2016-09-17T07:48:27.136Z,685
2016-09-17T07:49:27.120Z,690
2016-09-17T07:50:27.099Z,695
2016-09-17T07:51:27.082Z,705
2016-09-17T07:52:27.071Z,720
2016-09-17T07:53:27.050Z,745
2016-09-17T07:54:27.028Z,755
2016-09-17T07:55:27.007Z,765
2016-09-17T07:56:26.994Z,785
2016-09-17T07:57:26.981Z,800
2016-09-17T07:58:26.962Z,820
2016-09-17T07:59:26.939Z,845
2016-09-17T08:00:26.923Z,860
2016-09-17T08:01:26.909Z,875
2016-09-17T08:02:26.887Z,915
2016-09-17T08:03:26.873Z,945
2016-09-17T08:04:26.866Z,990
2016-09-17T08:05:26.836Z,1015
2016-09-17T08:07:26.808Z,1055
2016-09-17T08:08:26.788Z,1060
2016-09-17T08:09:26.776Z,1075
2016-09-17T08:10:26.757Z,1055
2016-09-17T08:11:26.745Z,1025
2016-09-17T08:12:26.720Z,995
2016-09-17T08:13:26.707Z,950
2016-09-17T08:14:26.689Z,900
2016-09-17T08:15:26.674Z,850
2016-09-17T08:16:26.659Z,810
2016-09-17T08:17:26.949Z,780
2016-09-17T08:18:26.623Z,745
2016-09-17T08:19:26.615Z,715
2016-09-17T08:20:26.600Z,680
2016-09-17T08:21:26.902Z,650
2016-09-17T08:22:26.560Z,635
2016-09-17T08:23:26.549Z,610
2016-09-17T08:24:26.535Z,600
2016-09-17T08:25:26.517Z,585
2016-09-17T08:26:26.501Z,570
2016-09-17T08:27:26.476Z,560
2016-09-17T08:28:26.465Z,545
2016-09-17T08:29:26.441Z,535
2016-09-17T08:30:26.437Z,520
2016-09-17T08:31:26.417Z,505
2016-09-17T08:32:26.705Z,490
2016-09-17T08:33:26.379Z,475
2016-09-17T08:34:26.370Z,470
2016-09-17T08:35:26.345Z,470
2016-09-17T08:36:26.334Z,475
2016-09-17T08:37:26.321Z,480
2016-09-17T08:38:26.303Z,490
2016-09-17T08:39:26.283Z,495
2016-09-17T08:40:26.267Z,500
2016-09-17T08:41:26.252Z,510
2016-09-17T08:42:26.233Z,500
2016-09-17T08:43:26.232Z,495
2016-09-17T08:44:26.201Z,485
2016-09-17T08:45:26.185Z,480
2016-09-17T08:46:26.167Z,475
2016-09-17T08:47:26.164Z,480
2016-09-17T08:48:26.140Z,490
2016-09-17T08:49:26.126Z,505
2016-09-17T08:50:26.097Z,520
2016-09-17T08:51:26.082Z,535
2016-09-17T08:52:26.065Z,550
2016-09-17T08:53:26.049Z,560
2016-09-17T08:54:26.033Z,580
2016-09-17T08:55:26.016Z,595
2016-09-17T08:56:25.998Z,625
2016-09-17T08:57:25.981Z,645
2016-09-17T08:58:25.970Z,675
2016-09-17T08:59:25.941Z,710
2016-09-17T09:00:25.929Z,740
2016-09-17T09:01:25.910Z,775
2016-09-17T09:02:25.894Z,790
2016-09-17T09:03:25.883Z,795
2016-09-17T09:04:25.862Z,780
2016-09-17T09:05:25.847Z,755
2016-09-17T09:06:25.834Z,740
2016-09-17T09:07:25.810Z,710
2016-09-17T09:08:25.793Z,695
2016-09-17T09:09:25.778Z,680
2016-09-17T09:10:25.775Z,675
2016-09-17T09:11:25.748Z,680
2016-09-17T09:12:25.731Z,695
2016-09-17T09:13:25.720Z,705
2016-09-17T09:14:25.692Z,720
2016-09-17T09:15:25.680Z,750
2016-09-17T09:16:25.658Z,785
2016-09-17T09:17:25.646Z,790
2016-09-17T09:18:25.624Z,780
2016-09-17T09:19:25.611Z,740
2016-09-17T09:20:25.588Z,690
2016-09-17T09:21:25.580Z,650
2016-09-17T09:22:25.564Z,635
2016-09-17T09:23:25.545Z,630
2016-09-17T09:24:25.529Z,640
2016-09-17T09:25:25.517Z,675
2016-09-17T09:26:25.501Z,730
2016-09-17T09:27:25.481Z,815
2016-09-17T09:28:25.468Z,865
2016-09-17T09:29:25.453Z,890
2016-09-17T09:30:25.441Z,925
2016-09-17T09:31:25.424Z,975
2016-09-17T09:32:25.399Z,995
2016-09-17T09:33:26.532Z,985
2016-09-17T09:34:25.362Z,965
2016-09-17T09:35:25.355Z,940
2016-09-17T09:36:25.339Z,885
2016-09-17T09:37:25.331Z,815
2016-09-17T09:38:25.305Z,745
2016-09-17T09:39:25.285Z,670
2016-09-17T09:40:25.272Z,585
2016-09-17T09:41:25.257Z,490
2016-09-17T09:42:25.245Z,425
2016-09-17T09:43:25.224Z,395
2016-09-17T09:44:25.211Z,385
2016-09-17T09:45:25.196Z,400
2016-09-17T09:46:25.174Z,425
2016-09-17T09:47:25.153Z,460
2016-09-17T09:48:25.143Z,480
2016-09-17T09:49:25.133Z,495
2016-09-17T09:50:25.108Z,505
2016-09-17T09:51:25.091Z,510
2016-09-17T09:52:25.076Z,520
2016-09-17T09:53:25.063Z,540
2016-09-17T09:54:25.043Z,545
2016-09-17T09:55:25.025Z,545
2016-09-17T09:56:25.009Z,540
2016-09-17T09:57:24.991Z,530
2016-09-17T09:58:24.976Z,525
2016-09-17T09:59:24.955Z,525
2016-09-17T10:00:24.939Z,500
2016-09-17T10:01:24.926Z,465
2016-09-17T10:02:24.910Z,435
2016-09-17T10:03:24.891Z,425
2016-09-17T10:04:24.866Z,430
2016-09-17T10:05:24.855Z,465
2016-09-17T10:06:24.852Z,510
2016-09-17T10:07:24.823Z,530
2016-09-17T10:08:24.803Z,540
2016-09-17T10:09:24.786Z,550
2016-09-17T10:10:24.775Z,565
2016-09-17T10:11:24.755Z,595
2016-09-17T10:12:24.734Z,610
2016-09-17T10:13:24.719Z,610
2016-09-17T10:14:24.714Z,630
2016-09-17T10:15:24.694Z,685
2016-09-17T10:16:24.686Z,745
2016-09-17T10:17:24.958Z,775
2016-09-17T10:18:24.634Z,790
2016-09-17T10:19:24.619Z,795
2016-09-17T10:20:24.608Z,790
2016-09-17T10:21:24.580Z,765
2016-09-17T10:22:24.569Z,725
2016-09-17T10:23:24.549Z,680
2016-09-17T10:24:24.533Z,645
2016-09-17T10:25:24.517Z,610
2016-09-17T10:26:24.514Z,585
2016-09-17T10:27:24.481Z,555
2016-09-17T10:28:24.467Z,550
2016-09-17T10:29:24.447Z,560
2016-09-17T10:30:24.435Z,580
2016-09-17T10:31:24.413Z,620
2016-09-17T10:32:24.401Z,665
2016-09-17T10:33:24.395Z,725
2016-09-17T10:34:24.367Z,780
2016-09-17T10:35:24.352Z,830
2016-09-17T10:36:24.334Z,850
2016-09-17T10:37:24.312Z,830
2016-09-17T10:38:24.304Z,770
2016-09-17T10:39:24.292Z,710
2016-09-17T10:40:24.268Z,675
2016-09-17T10:41:24.258Z,680
2016-09-17T10:42:24.234Z,700
2016-09-17T10:43:24.215Z,730
2016-09-17T10:44:24.205Z,755
2016-09-17T10:45:24.189Z,770
2016-09-17T10:46:24.171Z,760
2016-09-17T10:47:24.153Z,730
2016-09-17T10:48:24.145Z,700
2016-09-17T10:49:24.112Z,685
2016-09-17T10:50:24.105Z,695
2016-09-17T10:51:24.080Z,725
2016-09-17T10:52:24.071Z,760
2016-09-17T10:53:24.351Z,785
2016-09-17T10:54:24.036Z,800
2016-09-17T10:55:24.019Z,805
2016-09-17T10:56:24.003Z,815
2016-09-17T10:57:23.991Z,825
2016-09-17T10:58:23.970Z,820
2016-09-17T10:59:23.965Z,785
2016-09-17T11:00:23.950Z,745
2016-09-17T11:01:23.927Z,710
2016-09-17T11:02:23.902Z,680
2016-09-17T11:03:24.198Z,660
2016-09-17T11:04:23.880Z,645
2016-09-17T11:05:23.866Z,640
2016-09-17T11:06:23.841Z,645
2016-09-17T11:07:23.831Z,650
2016-09-17T11:08:23.807Z,660
2016-09-17T11:09:23.800Z,665
2016-09-17T11:10:23.780Z,670
2016-09-17T11:11:23.770Z,665
2016-09-17T11:12:24.048Z,665
2016-09-17T11:13:23.728Z,660
2016-09-17T11:14:23.715Z,665
2016-09-17T11:15:23.702Z,675
2016-09-17T11:16:23.697Z,695
2016-09-17T11:17:23.666Z,715
2016-09-17T11:18:23.653Z,730
2016-09-17T11:19:23.634Z,740
2016-09-17T11:20:23.627Z,740
2016-09-17T11:21:23.597Z,730
2016-09-17T11:22:23.593Z,710
2016-09-17T11:23:23.572Z,685
2016-09-17T11:24:23.555Z,645
2016-09-17T11:25:23.542Z,605
2016-09-17T11:26:23.524Z,565
2016-09-17T11:27:23.524Z,535
2016-09-17T11:28:23.499Z,510
2016-09-17T11:29:23.484Z,495
2016-09-17T11:30:23.462Z,495
2016-09-17T11:31:23.447Z,505
2016-09-17T11:32:23.428Z,520
2016-09-17T11:33:23.419Z,540
2016-09-17T11:34:23.410Z,555
2016-09-17T11:35:23.682Z,575
2016-09-17T11:36:23.359Z,585
2016-09-17T11:37:23.347Z,595
2016-09-17T11:38:23.629Z,600
2016-09-17T11:39:23.318Z,600
2016-09-17T11:40:23.302Z,600
2016-09-17T11:41:23.281Z,615
2016-09-17T11:42:23.260Z,610
2016-09-17T11:43:23.252Z,595
2016-09-17T11:44:23.229Z,585
2016-09-17T11:45:23.217Z,575
2016-09-17T11:46:23.202Z,595
2016-09-17T11:47:23.184Z,620
2016-09-17T11:48:23.169Z,650
2016-09-17T11:49:23.152Z,690
2016-09-17T11:50:23.136Z,745
2016-09-17T11:51:23.119Z,780
2016-09-17T11:52:23.113Z,820
2016-09-17T11:53:23.088Z,840
2016-09-17T11:54:23.082Z,845
2016-09-17T11:55:23.055Z,845
2016-09-17T11:56:23.039Z,855
2016-09-17T11:57:23.016Z,870
2016-09-17T11:58:23.008Z,880
2016-09-17T11:59:22.986Z,880
2016-09-17T12:00:22.970Z,880
2016-09-17T12:01:22.956Z,875
2016-09-17T12:02:22.942Z,870
2016-09-17T12:03:22.925Z,850
2016-09-17T12:04:22.912Z,825
2016-09-17T12:05:23.187Z,805
2016-09-17T12:06:22.886Z,785
2016-09-17T12:07:22.865Z,765
2016-09-17T12:08:22.849Z,750
2016-09-17T12:09:22.830Z,745
2016-09-17T12:10:22.817Z,735
2016-09-17T12:11:22.813Z,710
2016-09-17T12:12:23.083Z,675
2016-09-17T12:13:22.774Z,630
2016-09-17T12:14:22.759Z,575
2016-09-17T12:15:22.740Z,535
2016-09-17T12:16:22.721Z,505
2016-09-17T12:17:22.708Z,490
2016-09-17T12:18:22.694Z,475
2016-09-17T12:19:22.678Z,465
2016-09-17T12:20:22.657Z,460
2016-09-17T12:21:22.643Z,460
2016-09-17T12:22:22.634Z,475
2016-09-17T12:23:22.620Z,500
2016-09-17T12:24:22.603Z,520
2016-09-17T12:25:22.580Z,525
2016-09-17T12:26:22.569Z,515
2016-09-17T12:27:22.846Z,505
2016-09-17T12:28:22.538Z,510
2016-09-17T12:29:22.524Z,525
2016-09-17T12:30:22.503Z,550
2016-09-17T12:31:22.484Z,565
2016-09-17T12:32:22.481Z,580
2016-09-17T12:33:22.447Z,590
2016-09-17T12:34:22.434Z,590
2016-09-17T12:35:22.713Z,605
2016-09-17T12:36:22.403Z,635
2016-09-17T12:37:22.388Z,680
2016-09-17T12:38:22.368Z,705
2016-09-17T12:39:22.357Z,725
2016-09-17T12:40:22.354Z,735
2016-09-17T12:41:22.320Z,735
2016-09-17T12:42:22.303Z,740
2016-09-17T12:43:22.288Z,755
2016-09-17T12:44:22.276Z,765
2016-09-17T12:45:22.258Z,750
2016-09-17T12:46:22.239Z,725
2016-09-17T12:47:22.231Z,695
2016-09-17T12:48:22.219Z,655
2016-09-17T12:49:22.192Z,625
2016-09-17T12:50:22.179Z,610
2016-09-17T12:51:22.157Z,590
2016-09-17T12:52:22.147Z,580
2016-09-17T12:53:22.130Z,555
2016-09-17T12:54:22.116Z,530
2016-09-17T12:55:22.092Z,505
2016-09-17T12:56:22.082Z,480
2016-09-17T12:57:22.071Z,460
2016-09-17T12:58:22.045Z,440
2016-09-17T12:59:22.033Z,420
2016-09-17T13:00:22.017Z,405
2016-09-17T13:01:22.004Z,390
2016-09-17T13:02:21.986Z,375
2016-09-17T13:03:21.969Z,375
2016-09-17T13:04:21.946Z,375
2016-09-17T13:05:21.936Z,375
2016-09-17T13:06:21.917Z,380
2016-09-17T13:07:21.904Z,385
2016-09-17T13:08:21.883Z,390
2016-09-17T13:09:21.869Z,395
2016-09-17T13:10:21.852Z,400
2016-09-17T13:11:21.836Z,405
2016-09-17T13:12:21.818Z,410
2016-09-17T13:13:21.804Z,410
2016-09-17T13:14:21.788Z,405
2016-09-17T13:15:21.771Z,400
2016-09-17T13:16:21.751Z,385
2016-09-17T13:17:21.743Z,375
2016-09-17T13:18:21.721Z,370
2016-09-17T13:19:21.703Z,370
2016-09-17T13:20:21.682Z,375
2016-09-17T13:21:21.668Z,375
2016-09-17T13:22:21.664Z,380
2016-09-17T13:23:21.640Z,380
2016-09-17T13:24:21.626Z,380
2016-09-17T13:25:21.604Z,380
2016-09-17T13:26:21.594Z,375
2016-09-17T13:27:21.564Z,370
2016-09-17T13:28:21.550Z,365
2016-09-17T13:29:21.541Z,365
2016-09-17T13:30:21.521Z,370
2016-09-17T13:31:21.505Z,385
2016-09-17T13:32:21.493Z,390
2016-09-17T13:33:21.518Z,395
2016-09-17T13:34:21.454Z,400
2016-09-17T13:35:21.428Z,395
2016-09-17T13:36:21.428Z,385
2016-09-17T13:37:21.394Z,380
2016-09-17T13:38:21.389Z,370
2016-09-17T13:39:21.375Z,370
2016-09-17T13:40:21.345Z,370
2016-09-17T13:41:21.323Z,375
2016-09-17T13:42:21.308Z,380
2016-09-17T13:43:21.292Z,390
2016-09-17T13:44:21.293Z,395
2016-09-17T13:45:21.267Z,405
2016-09-17T13:46:21.239Z,415
2016-09-17T13:47:21.224Z,420
2016-09-17T13:48:21.208Z,420
2016-09-17T13:49:21.189Z,425
2016-09-17T13:50:21.187Z,435
2016-09-17T13:51:21.154Z,445
2016-09-17T13:52:21.136Z,455
2016-09-17T13:53:21.119Z,470
2016-09-17T13:54:21.098Z,465
2016-09-17T13:55:21.089Z,455
2016-09-17T13:56:21.065Z,450
2016-09-17T13:57:21.052Z,450
2016-09-17T13:58:21.043Z,455
2016-09-17T13:59:21.021Z,445
2016-09-17T14:00:21.001Z,430
2016-09-17T14:01:20.986Z,420
2016-09-17T14:02:20.959Z,425
2016-09-17T14:03:20.953Z,420
2016-09-17T14:04:20.942Z,405
2016-09-17T14:05:20.912Z,400
2016-09-17T14:06:20.915Z,410
2016-09-17T14:07:20.883Z,430
2016-09-17T14:08:20.863Z,435
2016-09-17T14:09:20.848Z,440